Time;durP1;ratioP1;P1;durP2;ratioP2;P2;SDS_P1;SDS_P2;PMS_P1;PMS_P2;Temp;Humidity;BMP_temperature;BMP_pressure;BME280_temperature;BME280_humidity;BME280_pressure;Samples;Min_cycle;Max_cycle;Signal;HPM_P1;HPM_P2
2022/06/03 00:00:48;;;;;;;7.50;4.30;;;10.10;99.90;;;;;;5082973;28;20058;-73
2022/06/03 00:03:51;;;;;;;6.53;3.80;;;10.10;99.90;;;;;;5086111;28;20086;-73
2022/06/03 00:06:41;;;;;;;7.40;5.00;;;10.10;99.90;;;;;;5090848;28;20050;-73
2022/06/03 00:09:33;;;;;;;7.28;4.65;;;10.10;99.90;;;;;;5100373;28;20056;-73
2022/06/03 00:12:14;;;;;;;9.15;4.80;;;9.90;99.90;;;;;;5077345;28;20212;-73
2022/06/03 00:15:17;;;;;;;5.88;4.18;;;9.90;99.90;;;;;;5093241;28;20450;-73
2022/06/03 00:18:07;;;;;;;7.78;4.25;;;10.00;99.90;;;;;;5080323;28;20083;-73
2022/06/03 00:20:51;;;;;;;5.85;5.22;;;9.90;99.90;;;;;;5081529;28;21015;-75
2022/06/03 00:23:32;;;;;;;8.73;5.03;;;10.00;99.90;;;;;;5105991;28;20089;-73
2022/06/03 00:26:19;;;;;;;6.15;5.10;;;10.00;99.90;;;;;;5098551;28;20452;-74
2022/06/03 00:28:53;;;;;;;5.32;4.38;;;10.00;99.90;;;;;;5102727;28;20520;-73
2022/06/03 00:31:34;;;;;;;6.43;4.85;;;9.90;99.90;;;;;;5083192;28;20043;-73
2022/06/03 00:34:18;;;;;;;5.65;4.70;;;9.90;99.90;;;;;;5084530;28;20128;-73
2022/06/03 00:36:50;;;;;;;6.82;4.65;;;9.90;99.90;;;;;;5076657;28;20093;-73
2022/06/03 00:39:34;;;;;;;9.25;5.10;;;9.80;99.90;;;;;;5083412;28;20039;-73
2022/06/03 00:42:21;;;;;;;5.57;4.55;;;9.90;99.90;;;;;;5073292;28;20130;-73
2022/06/03 00:45:08;;;;;;;9.13;5.22;;;9.90;99.90;;;;;;5082796;28;20066;-74
2022/06/03 00:47:47;;;;;;;5.68;4.72;;;9.80;99.90;;;;;;5102406;28;20044;-74
2022/06/03 00:50:24;;;;;;;5.83;5.00;;;9.80;99.90;;;;;;5087821;28;20766;-74
2022/06/03 00:53:18;;;;;;;6.55;5.85;;;9.80;99.90;;;;;;5082589;28;20356;-73
2022/06/03 00:56:27;;;;;;;9.98;5.78;;;9.80;99.90;;;;;;5086749;28;20040;-74
2022/06/03 00:59:27;;;;;;;6.60;5.07;;;9.80;99.90;;;;;;5050256;28;20244;-73
2022/06/03 01:02:07;;;;;;;7.65;5.47;;;9.80;99.90;;;;;;5083621;28;20546;-74
2022/06/03 01:05:24;;;;;;;12.30;6.18;;;9.70;99.90;;;;;;5083227;28;20448;-76
2022/06/03 01:08:21;;;;;;;7.57;4.82;;;9.80;99.90;;;;;;5025135;28;20224;-75
2022/06/03 01:11:04;;;;;;;11.20;5.85;;;9.80;99.90;;;;;;5082071;28;20048;-75
2022/06/03 01:14:04;;;;;;;8.77;6.13;;;9.70;99.90;;;;;;5084448;28;20043;-75
2022/06/03 01:17:03;;;;;;;9.35;5.40;;;9.70;99.90;;;;;;5092931;28;20143;-74
2022/06/03 01:19:59;;;;;;;9.33;5.60;;;9.70;99.90;;;;;;5092620;28;20818;-74
2022/06/03 01:23:02;;;;;;;11.38;7.28;;;9.70;99.90;;;;;;5087085;28;20652;-74
2022/06/03 01:25:58;;;;;;;7.50;5.32;;;9.60;99.90;;;;;;5088539;28;20379;-74
2022/06/03 01:28:46;;;;;;;8.80;6.07;;;9.60;99.90;;;;;;5044627;28;20048;-75
2022/06/03 01:31:31;;;;;;;11.70;7.07;;;9.50;99.90;;;;;;5082745;28;20036;-74
2022/06/03 01:34:32;;;;;;;7.30;6.32;;;9.50;99.90;;;;;;5065506;28;20051;-75
2022/06/03 01:37:09;;;;;;;8.20;6.10;;;9.40;99.90;;;;;;5083084;28;20059;-74
2022/06/03 01:39:55;;;;;;;9.48;5.60;;;9.30;99.90;;;;;;5074170;28;20052;-74
2022/06/03 01:42:42;;;;;;;8.95;6.43;;;9.30;99.90;;;;;;5066893;28;20077;-73
2022/06/03 01:45:37;;;;;;;10.40;7.07;;;9.20;99.90;;;;;;5086248;28;20085;-73
2022/06/03 01:48:03;;;;;;;9.50;6.25;;;9.30;99.90;;;;;;5079330;28;20044;-76
2022/06/03 01:50:52;;;;;;;11.90;6.32;;;9.30;99.90;;;;;;5081686;28;20062;-74
2022/06/03 01:53:22;;;;;;;8.02;5.82;;;9.30;99.90;;;;;;5094712;28;20142;-75
2022/06/03 01:56:03;;;;;;;9.52;6.88;;;9.10;99.90;;;;;;5096556;28;20064;-75
2022/06/03 01:58:48;;;;;;;11.35;7.60;;;9.20;99.90;;;;;;5081194;28;20039;-76
2022/06/03 02:01:35;;;;;;;11.73;6.10;;;9.20;99.90;;;;;;5063973;28;20488;-73
2022/06/03 02:04:26;;;;;;;8.52;6.45;;;9.20;99.90;;;;;;5078076;28;20400;-74
2022/06/03 02:07:40;;;;;;;9.23;7.38;;;9.10;99.90;;;;;;5088931;28;20034;-74
2022/06/03 02:10:29;;;;;;;10.48;7.35;;;9.20;99.90;;;;;;4969232;28;20097;-75
2022/06/03 02:13:26;;;;;;;7.27;6.50;;;9.10;99.90;;;;;;5090052;28;20451;-75
2022/06/03 02:15:58;;;;;;;8.73;6.63;;;9.10;99.90;;;;;;5066938;28;20608;-74
2022/06/03 02:19:03;;;;;;;11.25;6.75;;;9.10;99.90;;;;;;5091633;28;20127;-74
2022/06/03 02:21:47;;;;;;;9.80;7.38;;;9.10;99.90;;;;;;5070096;28;20055;-74
2022/06/03 02:24:45;;;;;;;10.23;7.35;;;9.10;99.90;;;;;;5094219;28;20039;-75
2022/06/03 02:27:18;;;;;;;7.45;6.05;;;9.00;99.90;;;;;;5065230;28;20058;-75
2022/06/03 02:30:27;;;;;;;13.38;8.30;;;9.00;99.90;;;;;;5076108;28;20055;-75
2022/06/03 02:33:29;;;;;;;11.27;7.10;;;9.00;99.90;;;;;;5090093;28;20051;-75
2022/06/03 02:36:04;;;;;;;15.38;7.05;;;9.10;99.90;;;;;;5089210;28;20040;-76
2022/06/03 02:38:40;;;;;;;11.63;8.30;;;9.00;99.90;;;;;;5091604;28;20177;-74
2022/06/03 02:41:19;;;;;;;10.18;7.72;;;9.10;99.90;;;;;;5081580;28;20114;-74
2022/06/03 02:44:11;;;;;;;14.65;8.80;;;9.00;99.90;;;;;;5096551;28;20047;-75
2022/06/03 02:46:58;;;;;;;12.38;8.30;;;9.00;99.90;;;;;;5095185;28;20082;-74
2022/06/03 02:49:55;;;;;;;17.35;7.95;;;8.90;99.90;;;;;;5089048;28;20123;-74
2022/06/03 02:52:23;;;;;;;13.85;8.05;;;8.90;99.90;;;;;;5089490;28;20062;-74
2022/06/03 02:54:55;;;;;;;13.85;8.57;;;8.80;99.90;;;;;;5071860;28;20040;-74
2022/06/03 02:57:26;;;;;;;8.95;7.40;;;8.90;99.90;;;;;;5084507;28;20044;-74
2022/06/03 03:00:31;;;;;;;11.23;7.88;;;8.90;99.90;;;;;;5083621;28;20047;-74
2022/06/03 03:03:06;;;;;;;9.23;7.25;;;8.90;99.90;;;;;;5067424;28;20544;-74
2022/06/03 03:06:09;;;;;;;9.38;7.90;;;8.80;99.90;;;;;;5084803;28;20040;-74
2022/06/03 03:08:54;;;;;;;8.75;7.78;;;8.80;99.90;;;;;;5103185;28;20623;-74
2022/06/03 03:11:29;;;;;;;11.65;9.30;;;8.70;99.90;;;;;;5079693;28;20159;-75
2022/06/03 03:14:33;;;;;;;13.75;9.45;;;8.80;99.90;;;;;;5088890;28;20111;-75
2022/06/03 03:17:20;;;;;;;10.90;8.43;;;8.80;99.90;;;;;;5012002;28;20140;-75
2022/06/03 03:20:12;;;;;;;13.30;8.15;;;8.80;99.90;;;;;;5007319;28;20038;-75
2022/06/03 03:23:17;;;;;;;10.82;8.98;;;8.80;99.90;;;;;;5066939;28;20094;-75
2022/06/03 03:26:04;;;;;;;14.00;9.73;;;8.80;99.90;;;;;;4995927;28;20137;-75
2022/06/03 03:28:45;;;;;;;12.02;9.77;;;8.80;99.90;;;;;;5001563;28;20589;-75
2022/06/03 03:31:13;;;;;;;12.10;9.88;;;8.80;99.90;;;;;;5047778;28;20112;-74
2022/06/03 03:34:08;;;;;;;12.00;8.60;;;8.80;99.90;;;;;;5087833;28;20365;-75
2022/06/03 03:37:18;;;;;;;11.63;9.38;;;8.90;99.90;;;;;;5089113;28;20057;-74
2022/06/03 03:40:02;;;;;;;;;;;8.80;99.90;;;;;;5011365;28;20038;-75
2022/06/03 03:43:07;;;;;;;15.98;11.52;;;8.80;99.90;;;;;;4987226;28;20404;-75
2022/06/03 03:45:53;;;;;;;12.95;9.20;;;8.80;99.90;;;;;;5075357;28;20126;-74
2022/06/03 03:48:42;;;;;;;14.88;9.32;;;9.00;99.90;;;;;;5085158;28;20048;-74
2022/06/03 03:51:32;;;;;;;14.90;10.30;;;9.00;99.90;;;;;;5086182;28;20257;-74
2022/06/03 03:54:28;;;;;;;11.85;9.38;;;9.00;99.90;;;;;;5086369;28;20040;-75
2022/06/03 03:57:12;;;;;;;12.55;9.30;;;9.00;99.90;;;;;;5084369;28;20043;-74
2022/06/03 04:00:08;;;;;;;11.75;8.93;;;9.00;99.90;;;;;;5064553;28;20105;-74
2022/06/03 04:02:37;;;;;;;17.65;10.23;;;9.10;99.90;;;;;;5085919;28;20517;-75
2022/06/03 04:05:31;;;;;;;13.98;9.95;;;9.10;99.90;;;;;;5084449;28;20040;-74
2022/06/03 04:08:06;;;;;;;12.48;9.85;;;9.20;99.90;;;;;;5082964;28;20509;-75
2022/06/03 04:11:00;;;;;;;13.20;9.80;;;9.30;99.90;;;;;;5053761;28;20048;-75
2022/06/03 04:13:43;;;;;;;16.73;9.93;;;9.60;99.90;;;;;;5066528;28;20039;-74
2022/06/03 04:16:15;;;;;;;10.40;8.13;;;9.60;99.90;;;;;;5082453;28;20044;-74
2022/06/03 04:18:49;;;;;;;10.13;8.45;;;9.50;99.90;;;;;;5066611;28;20068;-75
2022/06/03 04:21:24;;;;;;;9.18;8.27;;;9.50;99.90;;;;;;5100403;28;20050;-75
2022/06/03 04:24:08;;;;;;;13.93;9.98;;;9.50;99.90;;;;;;5104786;28;20371;-75
2022/06/03 04:26:42;;;;;;;15.57;9.35;;;9.50;99.90;;;;;;5084597;28;20490;-75
2022/06/03 04:29:34;;;;;;;9.45;8.45;;;10.00;99.90;;;;;;5062015;28;20054;-74
2022/06/03 04:32:27;;;;;;;11.02;8.93;;;10.20;99.90;;;;;;5033069;28;20141;-74
2022/06/03 04:35:24;;;;;;;10.10;9.07;;;10.30;99.90;;;;;;5058783;28;20070;-74
2022/06/03 04:38:21;;;;;;;10.27;9.07;;;10.10;99.90;;;;;;5103823;28;20051;-74
2022/06/03 04:41:24;;;;;;;10.13;8.57;;;10.20;99.90;;;;;;5084861;28;20117;-74
2022/06/03 04:44:26;;;;;;;20.83;8.45;;;10.60;99.90;;;;;;5082575;28;20130;-74
2022/06/03 04:47:27;;;;;;;9.05;8.15;;;10.40;99.90;;;;;;5079761;28;20052;-75
2022/06/03 04:50:02;;;;;;;16.55;8.07;;;10.40;99.90;;;;;;5055605;28;20051;-75
2022/06/03 04:52:46;;;;;;;12.02;8.45;;;10.40;99.90;;;;;;5105350;28;20047;-75
2022/06/03 04:55:30;;;;;;;11.23;8.20;;;10.40;99.90;;;;;;5096678;28;20130;-74
2022/06/03 04:58:33;;;;;;;10.18;8.23;;;10.50;99.90;;;;;;5085095;28;20040;-75
2022/06/03 05:01:23;;;;;;;11.07;8.18;;;10.50;99.90;;;;;;5078364;28;20043;-75
2022/06/03 05:04:08;;;;;;;;;;;10.70;99.90;;;;;;5102808;28;20046;-81
2022/06/03 05:06:39;;;;;;;9.73;7.97;;;10.60;99.90;;;;;;5074550;28;19920;-81
2022/06/03 05:09:37;;;;;;;11.38;7.15;;;10.80;99.90;;;;;;5082795;28;20044;-77
2022/06/03 05:12:40;;;;;;;9.20;7.13;;;10.80;99.90;;;;;;5089744;28;20076;-79
2022/06/03 05:15:26;;;;;;;12.32;7.72;;;10.80;99.90;;;;;;5097097;28;20072;-80
2022/06/03 05:18:01;;;;;;;12.25;6.97;;;10.80;99.90;;;;;;5072822;28;20107;-79
2022/06/03 05:20:45;;;;;;;8.88;6.05;;;10.90;99.90;;;;;;5092470;28;20043;-78
2022/06/03 05:23:49;;;;;;;7.55;6.65;;;11.00;99.90;;;;;;5114553;28;20027;-82
2022/06/03 05:26:37;;;;;;;8.15;5.90;;;11.10;99.90;;;;;;5110533;28;20518;-81
2022/06/03 05:29:14;;;;;;;8.38;6.25;;;11.10;99.90;;;;;;5077726;28;20074;-73
2022/06/03 05:32:12;;;;;;;8.30;6.20;;;11.20;99.90;;;;;;5094288;28;20460;-74
2022/06/03 05:34:49;;;;;;;9.07;6.18;;;11.20;99.90;;;;;;5051675;28;20082;-74
2022/06/03 05:37:37;;;;;;;7.53;5.30;;;11.30;99.90;;;;;;5092767;28;20036;-75
2022/06/03 05:40:12;;;;;;;7.90;5.65;;;11.40;99.90;;;;;;5068503;28;20036;-74
2022/06/03 05:43:00;;;;;;;8.02;5.70;;;11.50;99.90;;;;;;5103560;28;20959;-76
2022/06/03 05:45:44;;;;;;;10.07;6.47;;;11.60;99.90;;;;;;5066718;28;20024;-75
2022/06/03 05:48:25;;;;;;;7.43;5.95;;;12.10;99.90;;;;;;5091144;28;20119;-75
2022/06/03 05:51:04;;;;;;;5.82;5.18;;;11.90;99.90;;;;;;5083264;28;20051;-76
2022/06/03 05:53:56;;;;;;;6.18;4.38;;;12.00;99.90;;;;;;5083403;28;20055;-74
2022/06/03 05:56:36;;;;;;;5.60;4.47;;;11.90;99.90;;;;;;5080018;28;20048;-75
2022/06/03 05:59:20;;;;;;;6.15;5.03;;;12.00;99.90;;;;;;5064686;28;20078;-75
2022/06/03 06:01:56;;;;;;;8.32;4.97;;;11.90;99.90;;;;;;5085040;28;20040;-75
2022/06/03 06:04:36;;;;;;;5.75;4.40;;;12.00;99.90;;;;;;5062262;28;20123;-76
2022/06/03 06:07:18;;;;;;;5.50;4.07;;;12.10;99.90;;;;;;5077634;28;20418;-74
2022/06/03 06:10:00;;;;;;;5.50;4.40;;;12.20;99.90;;;;;;5061565;28;20055;-73
2022/06/03 06:12:42;;;;;;;4.60;3.33;;;12.30;99.90;;;;;;5080536;28;20056;-75
2022/06/03 06:15:37;;;;;;;10.32;4.65;;;12.40;99.90;;;;;;5083037;28;20051;-73
2022/06/03 06:18:23;;;;;;;10.45;4.47;;;12.40;99.90;;;;;;5101432;28;20044;-74
2022/06/03 06:21:00;;;;;;;4.70;3.00;;;12.60;99.90;;;;;;5076652;28;20079;-74
2022/06/03 06:23:40;;;;;;;7.72;3.63;;;12.60;99.90;;;;;;5084976;28;20504;-75
2022/06/03 06:26:12;;;;;;;4.28;3.08;;;12.70;99.90;;;;;;5081359;28;20040;-74
2022/06/03 06:29:08;;;;;;;3.90;3.40;;;12.80;99.90;;;;;;5089008;28;20637;-74
2022/06/03 06:31:59;;;;;;;5.72;2.95;;;12.90;99.90;;;;;;5061324;28;20051;-75
2022/06/03 06:34:52;;;;;;;7.95;3.60;;;12.90;99.90;;;;;;5100041;28;20100;-79
2022/06/03 06:37:27;;;;;;;4.43;2.58;;;13.00;99.90;;;;;;5091064;28;20044;-75
2022/06/03 06:40:37;;;;;;;4.30;3.00;;;13.10;99.90;;;;;;5081486;28;20477;-75
2022/06/03 06:43:22;;;;;;;3.25;2.53;;;13.20;99.90;;;;;;5081224;28;20059;-75
2022/06/03 06:46:05;;;;;;;5.00;2.88;;;13.30;99.90;;;;;;5086114;28;20054;-75
2022/06/03 06:48:50;;;;;;;5.03;2.08;;;13.50;99.90;;;;;;5063045;28;20508;-75
2022/06/03 06:51:22;;;;;;;4.18;2.25;;;14.40;99.90;;;;;;5063833;28;20102;-75
2022/06/03 06:54:08;;;;;;;5.28;2.53;;;15.80;99.90;;;;;;5093303;28;20044;-75
2022/06/03 06:56:42;;;;;;;4.55;2.13;;;16.60;99.90;;;;;;5046667;28;20056;-76
2022/06/03 06:59:20;;;;;;;2.35;1.50;;;16.80;99.90;;;;;;5081990;28;20044;-76
2022/06/03 07:01:53;;;;;;;2.47;2.00;;;17.30;99.90;;;;;;5053972;28;20047;-75
2022/06/03 07:04:27;;;;;;;6.35;2.03;;;17.10;99.90;;;;;;5079659;28;20048;-75
2022/06/03 07:07:15;;;;;;;3.03;2.05;;;17.50;99.90;;;;;;5082711;28;20048;-84
2022/06/03 07:09:54;;;;;;;3.80;1.50;;;17.50;99.90;;;;;;5084753;28;20056;-75
2022/06/03 07:12:35;;;;;;;1.95;1.38;;;18.40;99.90;;;;;;5083089;28;20047;-81
2022/06/03 07:15:12;;;;;;;2.92;1.48;;;18.70;99.90;;;;;;5086014;28;20046;-76
2022/06/03 07:21:03;;;;;;;4.43;1.00;;;18.00;99.90;;;;;;5001183;28;20046;-75
2022/06/03 07:23:44;;;;;;;2.58;1.20;;;18.10;99.90;;;;;;4986686;28;20077;-75
2022/06/03 07:26:18;;;;;;;3.28;1.35;;;18.30;99.90;;;;;;5059850;28;20111;-76
2022/06/03 07:28:57;;;;;;;3.33;1.08;;;18.50;99.90;;;;;;5086332;28;20043;-74
2022/06/03 07:31:40;;;;;;;4.20;1.77;;;19.00;99.90;;;;;;5083383;28;20080;-76
2022/06/03 07:34:16;;;;;;;3.42;1.25;;;18.60;99.90;;;;;;5084261;28;20096;-76
2022/06/03 07:36:51;;;;;;;1.50;1.00;;;18.90;99.90;;;;;;5085375;28;20136;-77
2022/06/03 07:39:26;;;;;;;3.78;1.20;;;18.90;99.90;;;;;;5082992;28;20040;-76
2022/06/03 07:42:07;;;;;;;1.95;0.98;;;18.50;99.90;;;;;;5067688;28;20044;-76
2022/06/03 07:44:55;;;;;;;3.15;1.10;;;18.50;99.90;;;;;;5069467;28;20122;-78
2022/06/03 07:47:24;;;;;;;5.80;1.45;;;17.90;99.90;;;;;;5082724;28;20044;-77
2022/06/03 07:49:59;;;;;;;1.55;1.17;;;17.50;99.90;;;;;;5068652;28;20052;-76
2022/06/03 07:52:40;;;;;;;1.65;1.00;;;17.00;99.90;;;;;;5090015;28;20044;-77
2022/06/03 07:55:13;;;;;;;;;;;16.80;99.90;;;;;;5091185;28;20127;-78
2022/06/03 07:57:39;;;;;;;1.55;1.00;;;16.70;99.90;;;;;;5085803;28;19920;-76
2022/06/03 08:00:13;;;;;;;3.85;1.20;;;16.70;99.90;;;;;;5087701;28;20093;-77
2022/06/03 08:02:39;;;;;;;4.65;1.77;;;16.90;99.90;;;;;;5084701;28;20076;-76
2022/06/03 08:05:16;;;;;;;1.98;0.95;;;17.10;99.90;;;;;;5049194;28;20082;-77
2022/06/03 08:13:18;;;;;;;3.08;1.30;;;17.50;99.90;;;;;;5066503;28;20048;-79
2022/06/03 08:15:53;;;;;;;4.28;1.20;;;17.40;99.90;;;;;;5095606;28;20040;-79
2022/06/03 08:18:19;;;;;;;4.40;1.10;;;17.20;99.90;;;;;;5086740;28;20040;-78
2022/06/03 08:20:52;;;;;;;2.05;1.05;;;17.40;99.90;;;;;;5086202;28;20156;-81
2022/06/03 08:23:19;;;;;;;1.95;1.30;;;17.50;99.90;;;;;;5071631;28;20436;-72
2022/06/03 08:25:48;;;;;;;1.63;0.70;;;17.70;99.90;;;;;;5082429;28;20075;-78
2022/06/03 08:28:18;;;;;;;1.85;1.05;;;17.90;99.90;;;;;;5076972;28;20089;-77
2022/06/03 08:30:50;;;;;;;4.10;1.13;;;17.60;99.90;;;;;;5088304;28;20036;-77
2022/06/03 08:33:22;;;;;;;1.38;1.00;;;18.00;99.90;;;;;;5086685;28;20409;-78
2022/06/03 08:35:48;;;;;;;4.22;1.10;;;18.10;99.90;;;;;;5084920;28;20044;-77
2022/06/03 08:38:21;;;;;;;2.33;0.88;;;18.30;99.90;;;;;;5079680;28;20036;-79
2022/06/03 08:41:04;;;;;;;1.63;1.08;;;18.10;99.90;;;;;;5085361;28;20036;-78
2022/06/03 08:43:35;;;;;;;3.53;1.15;;;17.80;99.90;;;;;;5088020;28;20051;-77
2022/06/03 08:46:26;;;;;;;3.10;1.30;;;17.90;99.90;;;;;;5083359;28;20403;-75
2022/06/03 08:48:59;;;;;;;4.00;1.08;;;18.20;99.90;;;;;;5077058;28;20036;-75
2022/06/03 08:51:34;;;;;;;2.15;0.90;;;18.30;99.90;;;;;;5082267;28;20047;-75
2022/06/03 08:54:15;;;;;;;5.30;1.60;;;18.20;99.90;;;;;;5084201;28;20044;-75
2022/06/03 08:56:44;;;;;;;3.22;1.35;;;18.00;99.90;;;;;;5081274;28;20123;-75
2022/06/03 08:59:17;;;;;;;1.75;0.93;;;17.90;99.90;;;;;;5083163;28;20368;-74
2022/06/03 09:01:48;;;;;;;1.60;1.05;;;18.40;99.90;;;;;;5080467;28;20101;-75
2022/06/03 09:04:20;;;;;;;1.48;0.82;;;18.20;99.90;;;;;;5082658;28;20490;-74
2022/06/03 09:06:52;;;;;;;4.30;1.75;;;18.20;99.90;;;;;;5064131;28;20083;-75
2022/06/03 09:09:31;;;;;;;1.40;0.88;;;18.30;99.90;;;;;;5063890;28;20709;-75
2022/06/03 09:12:29;;;;;;;3.42;1.13;;;18.30;99.90;;;;;;5082978;28;20043;-76
2022/06/03 09:15:00;;;;;;;2.72;1.08;;;18.40;99.90;;;;;;5033158;28;20170;-84
2022/06/03 09:17:39;;;;;;;4.40;1.52;;;18.60;99.90;;;;;;5083253;28;20036;-77
2022/06/03 09:20:29;;;;;;;3.08;1.02;;;18.70;99.90;;;;;;5082261;28;20050;-76
2022/06/03 09:23:11;;;;;;;2.33;1.50;;;18.70;99.90;;;;;;5064822;28;20094;-78
2022/06/03 09:25:47;;;;;;;1.20;1.10;;;18.30;99.90;;;;;;5079140;28;20346;-78
2022/06/03 09:28:17;;;;;;;2.45;1.77;;;18.60;99.90;;;;;;5082237;28;20086;-78
2022/06/03 09:30:44;;;;;;;;;;;18.50;99.90;;;;;;5084062;28;20410;-76
2022/06/03 09:33:14;;;;;;;1.75;1.08;;;18.80;99.90;;;;;;5082484;28;20302;-76
2022/06/03 09:35:44;;;;;;;1.88;0.93;;;19.00;99.90;;;;;;5076720;28;20052;-76
2022/06/03 09:38:11;;;;;;;7.68;1.38;;;19.10;99.90;;;;;;5081817;28;20040;-77
2022/06/03 09:40:43;;;;;;;2.25;1.23;;;18.80;99.90;;;;;;5083110;28;20040;-81
2022/06/03 09:43:38;;;;;;;2.22;1.23;;;18.70;99.90;;;;;;5083097;28;20073;-77
2022/06/03 09:46:08;;;;;;;2.75;1.55;;;18.90;99.90;;;;;;5075392;28;20118;-74
2022/06/03 09:48:36;;;;;;;3.45;1.48;;;18.90;99.90;;;;;;5083283;28;20127;-78
2022/06/03 09:51:55;;;;;;;3.80;1.33;;;18.90;99.90;;;;;;5081634;28;20047;-78
2022/06/03 09:54:13;;;;;;;2.72;1.55;;;19.20;99.90;;;;;;5081609;28;20052;-79
2022/06/03 09:56:40;;;;;;;1.90;1.45;;;18.80;99.90;;;;;;5079984;28;20047;-79
2022/06/03 09:59:09;;;;;;;3.50;1.23;;;19.10;99.90;;;;;;5082966;28;20445;-78
2022/06/03 10:01:35;;;;;;;2.10;1.38;;;19.20;99.90;;;;;;5082793;28;20546;-79
2022/06/03 10:04:05;;;;;;;2.72;1.58;;;19.30;99.90;;;;;;5081613;28;20052;-79
2022/06/03 10:06:43;;;;;;;1.88;1.52;;;19.40;99.90;;;;;;5080500;28;20059;-77
2022/06/03 10:17:53;;;;;;;1.40;1.30;;;19.30;99.90;;;;;;5080624;28;20461;-79
2022/06/03 10:20:20;;;;;;;2.53;1.85;;;19.50;99.90;;;;;;5080441;28;20177;-75
2022/06/03 10:22:46;;;;;;;7.55;3.33;;;19.60;99.90;;;;;;5065036;28;20032;-77
2022/06/03 10:25:12;;;;;;;1.75;1.00;;;19.60;99.90;;;;;;5082878;28;20040;-78
2022/06/03 10:27:38;;;;;;;3.22;1.50;;;19.70;99.90;;;;;;5062311;28;20430;-78
2022/06/03 10:30:05;;;;;;;3.22;1.25;;;19.60;99.90;;;;;;5082538;28;20094;-74
2022/06/03 10:32:32;;;;;;;3.90;1.58;;;19.90;99.90;;;;;;5081561;28;20123;-78
2022/06/03 10:35:13;;;;;;;1.63;1.52;;;20.00;99.90;;;;;;5081858;28;20439;-78
2022/06/03 10:37:51;;;;;;;3.47;1.60;;;19.70;99.90;;;;;;5079736;28;20071;-78
2022/06/03 10:40:17;;;;;;;2.03;1.40;;;19.80;99.90;;;;;;5083338;28;20036;-79
2022/06/03 10:42:49;;;;;;;1.63;1.35;;;19.50;99.90;;;;;;5082236;28;20044;-78
2022/06/03 10:45:16;;;;;;;2.58;1.58;;;19.60;99.90;;;;;;5064207;28;20083;-75
2022/06/03 10:47:47;;;;;;;2.42;1.52;;;19.60;99.90;;;;;;5081223;28;20098;-77
2022/06/03 10:50:35;;;;;;;3.05;1.45;;;19.70;99.90;;;;;;5085899;28;20052;-77
2022/06/03 11:01:06;;;;;;;4.03;1.50;;;19.80;99.90;;;;;;5085464;28;20052;-75
2022/06/03 11:01:53;;;;;;;2.85;1.38;;;20.30;99.90;;;;;;5085961;28;20048;-78
2022/06/03 11:04:37;;;;;;;7.20;1.48;;;20.20;99.90;;;;;;5084511;28;20383;-85
2022/06/03 11:07:20;;;;;;;3.50;1.75;;;20.20;99.90;;;;;;5067238;28;20044;-74
2022/06/03 11:09:57;;;;;;;4.55;2.13;;;20.30;99.90;;;;;;5086551;28;20084;-76
2022/06/03 11:12:25;;;;;;;1.98;1.65;;;20.70;99.90;;;;;;5082757;28;20052;-77
2022/06/03 11:14:51;;;;;;;3.97;1.42;;;20.60;99.90;;;;;;5083286;28;20114;-77
2022/06/03 11:17:21;;;;;;;2.53;1.33;;;20.40;99.90;;;;;;5086403;28;20135;-76
2022/06/03 11:19:53;;;;;;;2.22;1.38;;;20.60;99.90;;;;;;5082844;28;20130;-76
2022/06/03 11:22:40;;;;;;;1.67;1.20;;;20.80;99.90;;;;;;5084935;28;20040;-77
2022/06/03 11:25:26;;;;;;;1.67;1.35;;;20.60;99.90;;;;;;5066806;28;20539;-76
2022/06/03 11:28:11;;;;;;;2.78;1.45;;;20.40;99.90;;;;;;5086012;28;20036;-77
2022/06/03 11:30:49;;;;;;;2.58;1.17;;;20.20;99.90;;;;;;5086224;28;20044;-77
2022/06/03 11:33:22;;;;;;;1.63;1.33;;;20.40;99.90;;;;;;5094241;28;20043;-83
2022/06/03 11:36:11;;;;;;;2.42;1.40;;;20.20;99.90;;;;;;5088446;28;20033;-74
2022/06/03 11:38:46;;;;;;;2.15;0.98;;;20.20;99.90;;;;;;5074355;28;20047;-84
2022/06/03 11:41:21;;;;;;;2.47;1.13;;;20.30;99.90;;;;;;5072903;28;20147;-80
2022/06/03 11:43:54;;;;;;;3.50;1.27;;;20.20;99.90;;;;;;5087448;28;20060;-80
2022/06/03 11:46:31;;;;;;;1.88;1.35;;;20.30;99.90;;;;;;5084660;28;20082;-79
2022/06/03 11:48:57;;;;;;;0.98;0.98;;;20.40;99.90;;;;;;5085047;28;20067;-81
2022/06/03 11:51:25;;;;;;;1.83;1.70;;;20.10;99.90;;;;;;5084451;28;20079;-80
2022/06/03 11:53:52;;;;;;;3.83;1.42;;;19.60;99.90;;;;;;5085410;28;20040;-79
2022/06/03 11:56:25;;;;;;;2.38;1.35;;;19.80;99.90;;;;;;5084400;28;20047;-75
2022/06/03 11:59:01;;;;;;;1.52;1.30;;;20.10;99.90;;;;;;5065583;28;20551;-81
2022/06/03 12:01:44;;;;;;;3.45;1.10;;;20.50;99.90;;;;;;5090640;28;20040;-79
2022/06/03 12:04:20;;;;;;;3.95;1.23;;;20.40;99.90;;;;;;5086987;28;20079;-82
2022/06/03 12:07:00;;;;;;;2.25;1.42;;;20.60;99.90;;;;;;5084138;28;20052;-81
2022/06/03 12:09:35;;;;;;;4.15;1.75;;;20.20;99.90;;;;;;5067891;28;20055;-82
2022/06/03 12:15:18;;;;;;;2.67;1.10;;;20.50;99.90;;;;;;5085312;28;20089;-76
2022/06/03 12:17:43;;;;;;;1.75;1.25;;;20.60;99.90;;;;;;5039917;28;20047;-77
2022/06/03 12:20:31;;;;;;;3.97;2.58;;;20.60;99.90;;;;;;5095206;28;20054;-77
2022/06/03 12:22:57;;;;;;;2.90;1.05;;;20.40;99.90;;;;;;5072788;28;20036;-77
2022/06/03 12:25:50;;;;;;;4.28;1.25;;;21.10;99.90;;;;;;5089716;28;20040;-76
2022/06/03 12:28:24;;;;;;;4.07;0.90;;;20.90;99.90;;;;;;5026658;28;20070;-77
2022/06/03 12:30:51;;;;;;;3.75;1.90;;;21.20;99.90;;;;;;5105738;28;20054;-77
2022/06/03 12:33:54;;;;;;;6.95;2.20;;;21.00;99.90;;;;;;5073982;28;20065;-78
2022/06/03 12:36:50;;;;;;;3.45;1.63;;;20.80;99.90;;;;;;5086558;28;20036;-77
2022/06/03 12:39:34;;;;;;;1.52;1.25;;;20.70;99.90;;;;;;5081862;28;20040;-77
2022/06/03 12:42:05;;;;;;;2.70;1.17;;;21.00;99.90;;;;;;5080236;28;20055;-77
2022/06/03 12:44:36;;;;;;;1.50;1.30;;;20.80;99.90;;;;;;5081063;28;20426;-77
2022/06/03 12:47:35;;;;;;;3.50;1.45;;;21.00;99.90;;;;;;5064780;28;20060;-79
2022/06/03 12:50:04;;;;;;;3.10;1.95;;;21.00;99.90;;;;;;5092730;28;20435;-78
2022/06/03 12:52:29;;;;;;;1.48;1.35;;;20.90;99.90;;;;;;5080080;28;20282;-79
2022/06/03 12:55:21;;;;;;;3.08;1.27;;;21.00;99.90;;;;;;5080841;28;20670;-78
2022/06/03 12:58:00;;;;;;;2.80;1.63;;;20.70;99.90;;;;;;5099868;28;20461;-77
2022/06/03 13:00:35;;;;;;;4.82;1.60;;;21.00;99.90;;;;;;5079706;28;20048;-78
2022/06/03 13:03:06;;;;;;;3.25;1.25;;;20.90;99.90;;;;;;5083460;28;20391;-76
2022/06/03 13:05:43;;;;;;;2.15;1.38;;;21.00;99.90;;;;;;5074585;28;20524;-80
2022/06/03 13:08:11;;;;;;;6.35;1.60;;;21.00;99.90;;;;;;5091545;28;20624;-79
2022/06/03 13:11:08;;;;;;;1.65;1.25;;;20.90;99.90;;;;;;5095306;28;20502;-77
2022/06/03 13:13:37;;;;;;;3.60;1.27;;;21.30;99.90;;;;;;5004282;28;20112;-76
2022/06/03 13:16:24;;;;;;;3.40;1.75;;;21.00;99.90;;;;;;5081044;28;20405;-76
2022/06/03 13:18:59;;;;;;;4.35;1.45;;;20.90;99.90;;;;;;5082287;28;20127;-76
2022/06/03 13:22:04;;;;;;;2.13;1.33;;;20.90;99.90;;;;;;5077330;28;20406;-75
2022/06/03 13:24:32;;;;;;;3.00;1.70;;;20.90;99.90;;;;;;4987203;28;20066;-76
2022/06/03 13:27:20;;;;;;;4.35;1.75;;;20.80;99.90;;;;;;5002660;28;20038;-76
2022/06/03 13:29:52;;;;;;;1.95;1.33;;;20.80;99.90;;;;;;5059136;28;20139;-77
2022/06/03 13:32:33;;;;;;;2.95;1.13;;;20.30;99.90;;;;;;5081786;28;20055;-75
2022/06/03 13:35:20;;;;;;;2.97;1.23;;;20.50;99.90;;;;;;5065568;28;20070;-76
2022/06/03 13:37:50;;;;;;;3.92;1.52;;;20.20;99.90;;;;;;5070079;28;20040;-77
2022/06/03 13:40:25;;;;;;;3.25;1.73;;;20.10;99.90;;;;;;5084882;28;20036;-77
2022/06/03 13:42:59;;;;;;;2.78;1.70;;;20.20;99.90;;;;;;5089639;28;20044;-79
2022/06/03 13:45:47;;;;;;;5.07;1.17;;;20.30;99.90;;;;;;5091256;28;20409;-77
2022/06/03 13:48:24;;;;;;;4.38;1.73;;;20.30;99.90;;;;;;5081972;28;20119;-78
2022/06/03 13:50:50;;;;;;;1.90;1.05;;;20.20;99.90;;;;;;5083774;28;20452;-80
2022/06/03 13:53:25;;;;;;;3.35;1.13;;;20.10;99.90;;;;;;5085198;28;20036;-77
2022/06/03 13:55:55;;;;;;;3.33;1.23;;;20.30;99.90;;;;;;5075358;28;20039;-79
2022/06/03 13:58:29;;;;;;;3.67;1.42;;;20.20;99.90;;;;;;5087795;28;20104;-78
2022/06/03 14:00:59;;;;;;;4.00;1.63;;;20.20;99.90;;;;;;5083108;28;20047;-79
2022/06/03 14:03:27;;;;;;;2.33;1.35;;;20.10;99.90;;;;;;5063721;28;20051;-79
2022/06/03 14:06:08;;;;;;;3.08;0.80;;;20.10;99.90;;;;;;5085520;28;20043;-80
2022/06/03 14:08:39;;;;;;;4.32;1.10;;;20.00;99.90;;;;;;5088285;28;20047;-77
2022/06/03 14:11:04;;;;;;;1.58;1.15;;;20.00;99.90;;;;;;5095256;28;20135;-78
2022/06/03 14:13:57;;;;;;;4.10;1.45;;;20.20;99.90;;;;;;5065852;28;20532;-77
2022/06/03 14:16:32;;;;;;;3.60;1.33;;;20.10;99.90;;;;;;5080346;28;20044;-83
2022/06/03 14:19:19;;;;;;;4.07;1.08;;;20.00;99.90;;;;;;5090587;28;20082;-85
2022/06/03 14:21:49;;;;;;;4.40;1.02;;;20.00;99.90;;;;;;5086608;28;20064;-83
2022/06/03 14:24:30;;;;;;;7.28;0.95;;;20.00;99.90;;;;;;5084657;28;20118;-86
2022/06/03 14:27:38;;;;;;;6.05;1.27;;;19.80;99.90;;;;;;5091143;28;20043;-86